• Join FlightAware (Why Join?)
  • Login
  • US Flag 
09:37AM EST


 

Airport Tracker/Info


-or-


 

Live Flight TrackerFlight Track Log ✈ JIA2342 ✈ 27-Jul-2013 ✈ KCLT - KDAY

Flight Track Log - Related Links

Times and Time Zones

All times are in EDT time to prevent confusion due to time zone crossing. See the JIA2342 flight status page for this flight to view local times or setup timezone preferences in your user account.

Time Position Orientation Groundspeed Altitude Reporting Facility
EDT Latitude Longitude Course Direction KTS MPH feet Rate Location/Type
10:11PM 35.1869 -80.9511 52° Northeast 175 201 1,400  Level Atlanta Center
10:13PM 35.1442 -80.9856 213° Southwest 222 255 3,100 1,746 Climbing Atlanta Center
10:14PM 35.1167 -81.1956 270° West  Level FlightAware Approximate
10:14PM 35.1461 -81.0719 272° West 276 318 5,300  Level Atlanta Center
10:15PM 35.2087 -81.2167 North  Level FlightAware Approximate
10:15PM 35.2464 -81.0761 358° North 281 323 8,300  Level Atlanta Center
10:16PM 35.2878 -81.1597 52° Northeast  Level FlightAware Approximate
10:16PM 35.3228 -81.0428 20° North 269 310 10,300  Level Atlanta Center
10:17PM 35.3550 -81.0541 52° Northeast  Level FlightAware Approximate
10:17PM 35.4139 -81.0089 17° North 314 361 11,300  Level Atlanta Center
10:18PM 35.5089 -80.9722 17° North 346 398 12,400 1,000 Climbing Atlanta Center
10:19PM 35.6078 -81.0094 343° North 353 406 13,300 1,050 Climbing Atlanta Center
10:20PM 35.7011 -81.0697 332° Northwest 364 419 14,500 1,200 Climbing Atlanta Center
10:21PM 35.7944 -81.1331 331° Northwest 380 437 15,700 1,250 Climbing Atlanta Center
10:22PM 35.8897 -81.1961 332° Northwest 380 437 17,000 1,200 Climbing Atlanta Center
10:23PM 35.9831 -81.2569 332° Northwest 380 437 18,100 1,100 Climbing Atlanta Center
10:24PM 36.0783 -81.3206 332° Northwest 380 437 19,200 1,061 Climbing Atlanta Center
10:26PM 36.2653 -81.4439 332° Northwest 381 438 21,300 1,022 Climbing Indianapolis Center
10:27PM 36.3578 -81.5067 331° Northwest 379 436 22,300 744 Climbing Indianapolis Center
10:28PM 36.4481 -81.5686 331° Northwest 374 430 22,800 496 Climbing Indianapolis Center
10:29PM 36.5458 -81.6314 333° Northwest 391 450 23,300 492 Climbing Indianapolis Center
10:30PM 36.6414 -81.6975 331° Northwest 392 451 23,800 496 Climbing Indianapolis Center
10:31PM 36.7392 -81.7636 332° Northwest 399 459 24,300 545 Climbing Indianapolis Center
10:32PM 36.8378 -81.8297 332° Northwest 402 463 24,900 541 Climbing Indianapolis Center
10:33PM 36.9375 -81.8981 331° Northwest 408 470 25,400 496 Climbing Indianapolis Center
10:34PM 37.0372 -81.9672 331° Northwest 410 472 25,900 496 Climbing Indianapolis Center
10:35PM 37.1369 -82.0364 331° Northwest 411 473 26,400 496 Climbing Indianapolis Center
10:36PM 37.2383 -82.1053 332° Northwest 415 478 26,900 496 Climbing Indianapolis Center
10:37PM 37.3383 -82.1753 331° Northwest 413 475 27,400 492 Climbing Indianapolis Center
10:38PM 37.4383 -82.2444 331° Northwest 412 474 27,900 298 Climbing Indianapolis Center
10:39PM 37.5378 -82.3142 331° Northwest 411 473 28,000 50 Climbing Indianapolis Center
10:40PM 37.6408 -82.3858 331° Northwest 419 482 28,000  Level Indianapolis Center
10:41PM 37.7628 -82.4725 331° Northwest 427 491 28,000  Level Indianapolis Center
10:42PM 37.8681 -82.5453 331° Northwest 431 496 28,000  Level Indianapolis Center
10:43PM 37.9797 -82.6083 336° Northwest 441 507 28,000  Level Indianapolis Center
10:44PM 38.1086 -82.6089 360° North 460 529 28,000  Level Indianapolis Center
10:45PM 38.2189 -82.6792 333° Northwest 439 505 28,000  Level Indianapolis Center
10:46PM 38.3203 -82.7606 328° Northwest 431 496 28,000 -248 Level Indianapolis Center
10:47PM 38.4231 -82.8433 328° Northwest 436 502 27,500 -793 Descending Indianapolis Center
10:48PM 38.5228 -82.9256 327° Northwest 427 491 26,400 -1,131 Descending Indianapolis Center
10:49PM 38.6194 -83.0056 327° Northwest 416 479 25,200 -1,438 Descending Indianapolis Center
10:50PM 38.7003 -83.0692 328° Northwest 392 451 23,500 -1,587 Descending Indianapolis Center
10:51PM 38.7856 -83.1406 327° Northwest 366 421 22,000 -1,525 Descending Indianapolis Center
10:52PM 38.8767 -83.2153 327° Northwest 367 422 20,400 -1,537 Descending Indianapolis Center
10:53PM 38.9633 -83.2867 327° Northwest 366 421 18,900 -1,488 Descending Indianapolis Center
10:54PM 39.0497 -83.3594 327° Northwest 368 423 17,400 -1,613 Descending Indianapolis Center
10:55PM 39.1436 -83.4383 327° Northwest 369 425 15,700 -1,705 Descending Indianapolis Center
10:56PM 39.1883 -83.4753 327° Northwest 360 414 14,900 -1,333 Descending Indianapolis Center
10:56PM 39.2217 -83.5014 329° Northwest 363 418 14,300 -1,340 Descending Indianapolis Center
10:57PM 39.3083 -83.5731 327° Northwest 365 420 12,800 -1,488 Descending Indianapolis Center
10:58PM 39.3911 -83.6431 327° Northwest 355 409 11,300 -1,388 Descending Indianapolis Center
10:59PM 39.4664 -83.7078 326° Northwest 328 377 10,000 -645 Descending Indianapolis Center
11:00PM 39.5342 -83.7639 327° Northwest 292 336 10,000 -149 Level Indianapolis Center
11:01PM 39.6000 -83.8217 326° Northwest 284 327 9,700 -1,082 Descending Indianapolis Center
11:02PM 39.6633 -83.8769 326° Northwest 273 314 7,800 -1,835 Descending Indianapolis Center
11:03PM 39.7267 -83.9317 326° Northwest 270 311 6,000 -1,785 Descending Indianapolis Center
11:04PM 39.7886 -83.9847 327° Northwest 267 307 4,200 -984 Descending Indianapolis Center
11:05PM 39.8461 -84.0333 327° Northwest 256 295 4,000 -694 Descending Indianapolis Center
11:06PM 39.8992 -84.0786 327° Northwest 239 275 2,800 -744 Descending Indianapolis Center
11:07PM 39.9467 -84.1142 330° Northwest 216 249 2,500 -446 Descending Indianapolis Center
11:08PM 39.9214 -84.1639 236° Southwest 180 207 1,900 -397 Descending Indianapolis Center
11:09PM 39.8983 -84.2111 238° Southwest 176 203 1,700 -197 Descending Indianapolis Center